Time;durP1;ratioP1;P1;durP2;ratioP2;P2;SDS_P1;SDS_P2;PMS_P1;PMS_P2;Temp;Humidity;BMP_temperature;BMP_pressure;BME280_temperature;BME280_humidity;BME280_pressure;Samples;Min_cycle;Max_cycle;Signal;HPM_P1;HPM_P2
2021/07/25 00:02:05;;;;;;;24.77;23.17;;;20.90;92.50;;;;;;5050392;28;20519;-70
2021/07/25 00:04:32;;;;;;;25.30;23.50;;;20.90;92.60;;;;;;5048006;28;20461;-70
2021/07/25 00:06:59;;;;;;;24.80;22.90;;;20.90;92.30;;;;;;5049502;28;21034;-70
2021/07/25 00:09:26;;;;;;;25.00;23.20;;;21.00;92.00;;;;;;5050282;28;20473;-70
2021/07/25 00:11:53;;;;;;;24.30;22.70;;;21.00;92.10;;;;;;5057011;28;20880;-70
2021/07/25 00:14:20;;;;;;;25.87;23.90;;;21.00;92.20;;;;;;5047411;28;20459;-70
2021/07/25 00:16:47;;;;;;;25.37;23.67;;;21.00;92.20;;;;;;5042188;28;20513;-70
2021/07/25 00:19:15;;;;;;;26.23;24.53;;;21.00;92.40;;;;;;5054059;28;20565;-70
2021/07/25 00:21:42;;;;;;;25.60;23.90;;;21.00;92.50;;;;;;5050956;28;20462;-70
2021/07/25 00:24:09;;;;;;;24.90;22.90;;;20.90;92.60;;;;;;5056905;28;20940;-70
2021/07/25 00:26:37;;;;;;;25.40;23.77;;;20.90;92.60;;;;;;5052535;28;20493;-71
2021/07/25 00:29:05;;;;;;;25.17;23.50;;;20.90;92.50;;;;;;5048938;28;20459;-71
2021/07/25 00:31:33;;;;;;;25.67;23.97;;;20.90;92.60;;;;;;5051285;28;20497;-71
2021/07/25 00:34:02;;;;;;;26.50;24.70;;;20.90;92.50;;;;;;5046952;28;20562;-71
2021/07/25 00:36:30;;;;;;;26.20;24.50;;;20.90;92.50;;;;;;5050043;28;20481;-71
2021/07/25 00:38:57;;;;;;;25.90;23.83;;;20.80;92.90;;;;;;5045773;28;20470;-71
2021/07/25 00:41:24;;;;;;;24.97;23.13;;;20.70;93.60;;;;;;5052076;28;20455;-71
2021/07/25 00:43:51;;;;;;;24.30;22.37;;;20.80;93.40;;;;;;5052914;28;20564;-71
2021/07/25 00:46:19;;;;;;;25.67;23.70;;;20.80;93.50;;;;;;5050806;28;20481;-71
2021/07/25 00:48:47;;;;;;;24.43;22.73;;;20.80;93.20;;;;;;5060462;28;20462;-71
2021/07/25 00:51:14;;;;;;;25.83;23.93;;;20.80;93.40;;;;;;5046672;28;20481;-71
2021/07/25 00:53:44;;;;;;;25.13;23.23;;;20.90;93.10;;;;;;5045429;28;20548;-71
2021/07/25 00:56:11;;;;;;;24.83;23.17;;;20.90;92.90;;;;;;5042746;28;20510;-71
2021/07/25 00:58:39;;;;;;;24.90;23.10;;;20.80;93.00;;;;;;5046955;28;20455;-71
2021/07/25 01:01:07;;;;;;;24.27;22.67;;;20.90;93.00;;;;;;5048592;28;20464;-71
2021/07/25 01:03:48;;;;;;;25.70;24.00;;;20.90;92.90;;;;;;5043679;28;20476;-71
2021/07/25 01:06:26;;;;;;;25.73;23.83;;;20.80;92.80;;;;;;5049054;28;20467;-71
2021/07/25 01:08:59;;;;;;;27.80;25.73;;;20.90;92.70;;;;;;5048276;28;20920;-71
2021/07/25 01:11:31;;;;;;;25.50;23.60;;;20.90;92.50;;;;;;5059867;28;20477;-71
2021/07/25 01:14:03;;;;;;;25.57;23.70;;;20.90;92.30;;;;;;5060727;28;20555;-71
2021/07/25 01:16:31;;;;;;;25.27;23.50;;;20.90;92.30;;;;;;5046090;28;20483;-71
2021/07/25 01:18:58;;;;;;;26.13;24.13;;;20.80;92.10;;;;;;5047969;28;20829;-71
2021/07/25 01:21:27;;;;;;;24.60;23.10;;;20.80;92.10;;;;;;5049753;28;20462;-71
2021/07/25 01:23:54;;;;;;;26.00;23.97;;;20.80;91.80;;;;;;5046577;28;20457;-70
2021/07/25 01:26:27;;;;;;;25.30;23.50;;;20.90;91.70;;;;;;5048826;28;20814;-71
2021/07/25 01:28:56;;;;;;;25.70;23.50;;;20.90;91.50;;;;;;5048688;28;20841;-71
2021/07/25 01:31:29;;;;;;;24.27;22.70;;;21.00;91.20;;;;;;5050914;28;20477;-71
2021/07/25 01:33:59;;;;;;;24.20;22.70;;;21.00;90.70;;;;;;5045213;28;20471;-70
2021/07/25 01:36:28;;;;;;;25.40;23.47;;;20.90;90.30;;;;;;5049973;28;20479;-71
2021/07/25 01:38:56;;;;;;;25.43;23.70;;;20.90;89.90;;;;;;5043315;28;20456;-70
2021/07/25 01:41:23;;;;;;;25.30;23.67;;;20.70;90.40;;;;;;5043141;28;20458;-70
2021/07/25 01:43:51;;;;;;;23.70;22.30;;;20.70;90.70;;;;;;5031957;28;20462;-71
2021/07/25 01:46:18;;;;;;;25.10;23.37;;;20.70;91.00;;;;;;5049123;28;21018;-70
2021/07/25 01:48:46;;;;;;;24.43;22.83;;;20.70;91.10;;;;;;5045249;28;20968;-70
2021/07/25 01:51:14;;;;;;;25.57;23.47;;;20.70;91.30;;;;;;5050272;28;20489;-70
2021/07/25 01:53:42;;;;;;;25.93;24.10;;;20.70;91.70;;;;;;5044087;28;20454;-70
2021/07/25 01:56:09;;;;;;;24.90;23.30;;;20.60;91.80;;;;;;5048326;28;20479;-70
2021/07/25 01:58:36;;;;;;;25.53;23.70;;;20.60;92.10;;;;;;5048875;28;20545;-70
2021/07/25 02:01:03;;;;;;;26.57;24.50;;;20.60;92.10;;;;;;5048658;28;20462;-70
2021/07/25 02:03:29;;;;;;;25.00;23.30;;;20.70;91.90;;;;;;5048534;28;20477;-70
2021/07/25 02:05:57;;;;;;;25.93;23.90;;;20.60;92.10;;;;;;5048351;28;20471;-70
2021/07/25 02:08:24;;;;;;;26.10;24.40;;;20.70;92.10;;;;;;5043957;28;20447;-71
2021/07/25 02:10:53;;;;;;;25.87;24.10;;;20.60;92.40;;;;;;5047108;28;20485;-70
2021/07/25 02:13:22;;;;;;;25.27;23.43;;;20.60;92.40;;;;;;5036785;28;20508;-70
2021/07/25 02:15:49;;;;;;;24.37;22.87;;;20.60;92.50;;;;;;5046661;28;20482;-70
2021/07/25 02:18:16;;;;;;;24.77;23.00;;;20.50;92.70;;;;;;5048130;28;20541;-70
2021/07/25 02:20:44;;;;;;;27.27;25.07;;;20.50;92.90;;;;;;5050555;28;20458;-70
2021/07/25 02:23:11;;;;;;;25.43;23.30;;;20.50;92.80;;;;;;5046073;28;20468;-70
2021/07/25 02:25:38;;;;;;;24.73;23.07;;;20.40;93.20;;;;;;5045731;28;20539;-69
2021/07/25 02:28:08;;;;;;;24.97;23.03;;;20.40;93.20;;;;;;5045279;28;20470;-70
2021/07/25 02:30:35;;;;;;;25.97;24.07;;;20.30;93.40;;;;;;5040641;28;20463;-71
2021/07/25 02:33:02;;;;;;;24.80;23.07;;;20.40;93.10;;;;;;5038311;28;20973;-70
2021/07/25 02:35:28;;;;;;;26.50;24.80;;;20.40;93.20;;;;;;5042603;28;20478;-70
2021/07/25 02:37:55;;;;;;;28.53;26.10;;;20.40;92.90;;;;;;5042846;28;20458;-70
2021/07/25 02:40:23;;;;;;;26.07;24.30;;;20.30;93.30;;;;;;5046055;28;20947;-70
2021/07/25 02:42:49;;;;;;;26.37;24.57;;;20.40;93.10;;;;;;5040803;28;20458;-69
2021/07/25 02:45:18;;;;;;;26.63;24.53;;;20.40;93.30;;;;;;5042569;28;20486;-70
2021/07/25 02:47:45;;;;;;;26.70;24.87;;;20.40;93.50;;;;;;5046853;28;20990;-70
2021/07/25 02:50:12;;;;;;;26.30;24.53;;;20.50;93.40;;;;;;5040718;28;20455;-70
2021/07/25 02:52:39;;;;;;;25.50;23.63;;;20.50;93.40;;;;;;5045119;28;20469;-70
2021/07/25 02:55:07;;;;;;;25.80;23.93;;;20.50;93.40;;;;;;5049995;28;20454;-70
2021/07/25 02:57:33;;;;;;;26.60;24.73;;;20.60;93.40;;;;;;5050079;28;20452;-70
2021/07/25 03:00:00;;;;;;;25.40;23.63;;;20.60;93.30;;;;;;5046233;28;20465;-70
2021/07/25 03:02:29;;;;;;;26.60;24.80;;;20.60;93.20;;;;;;5033954;28;20481;-70
2021/07/25 03:04:55;;;;;;;25.53;23.70;;;20.60;92.70;;;;;;5041278;28;20466;-70
2021/07/25 03:07:22;;;;;;;25.80;24.17;;;20.50;92.60;;;;;;5049933;28;20473;-69
2021/07/25 03:09:49;;;;;;;26.20;24.30;;;20.40;93.00;;;;;;5047028;28;20481;-70
2021/07/25 03:12:16;;;;;;;26.43;24.50;;;20.40;93.30;;;;;;5047032;28;20492;-70
2021/07/25 03:14:43;;;;;;;26.43;24.30;;;20.40;93.50;;;;;;5041054;28;20469;-70
2021/07/25 03:17:10;;;;;;;26.03;24.20;;;20.40;93.60;;;;;;5045345;28;20568;-70
2021/07/25 03:19:38;;;;;;;26.57;24.70;;;20.40;93.80;;;;;;5049552;28;20465;-70
2021/07/25 03:22:08;;;;;;;26.63;24.57;;;20.30;94.10;;;;;;5033279;28;20541;-71
2021/07/25 03:24:35;;;;;;;26.60;24.90;;;20.30;94.20;;;;;;5046977;28;20528;-70
2021/07/25 03:27:02;;;;;;;26.57;24.40;;;20.30;94.10;;;;;;5053992;28;21059;-71
2021/07/25 03:29:29;;;;;;;26.37;24.40;;;20.30;94.10;;;;;;5040653;28;20821;-70
2021/07/25 03:31:56;;;;;;;26.83;24.87;;;20.30;94.00;;;;;;5050331;28;20574;-71
2021/07/25 03:34:23;;;;;;;25.77;23.80;;;20.30;93.90;;;;;;5044566;28;20463;-70
2021/07/25 03:36:51;;;;;;;27.30;25.30;;;20.30;93.90;;;;;;5054454;28;20478;-71
2021/07/25 03:39:20;;;;;;;27.37;25.37;;;20.30;94.00;;;;;;5038667;28;20460;-70
2021/07/25 03:41:47;;;;;;;26.20;24.20;;;20.20;93.90;;;;;;5042540;28;21057;-70
2021/07/25 03:44:14;;;;;;;26.53;24.33;;;20.20;94.00;;;;;;5041324;28;20455;-70
2021/07/25 03:46:41;;;;;;;27.37;25.53;;;20.20;93.80;;;;;;5041208;28;20476;-70
2021/07/25 03:49:08;;;;;;;26.27;24.37;;;20.20;93.40;;;;;;5051754;28;20540;-70
2021/07/25 03:51:36;;;;;;;26.43;24.43;;;20.10;93.60;;;;;;5040724;28;20472;-70
2021/07/25 03:54:06;;;;;;;29.27;27.07;;;20.20;93.60;;;;;;5048134;28;20955;-70
2021/07/25 03:56:35;;;;;;;26.47;24.77;;;20.20;93.40;;;;;;5040154;28;20472;-70
2021/07/25 03:59:02;;;;;;;26.97;24.90;;;20.10;93.60;;;;;;5052596;28;20862;-70
2021/07/25 04:01:29;;;;;;;26.70;24.60;;;20.10;93.70;;;;;;5051767;28;20537;-70
2021/07/25 04:03:56;;;;;;;25.60;23.87;;;20.10;93.60;;;;;;5048661;28;20485;-70
2021/07/25 04:06:22;;;;;;;26.10;24.00;;;20.10;93.50;;;;;;5051524;28;20474;-70
2021/07/25 04:08:49;;;;;;;26.33;24.43;;;20.20;93.50;;;;;;5051513;28;20471;-70
2021/07/25 04:11:21;;;;;;;26.33;24.50;;;20.10;93.40;;;;;;5050448;28;20487;-70
2021/07/25 04:13:49;;;;;;;25.97;24.27;;;20.10;93.40;;;;;;5046714;28;20498;-70
2021/07/25 04:16:16;;;;;;;26.13;24.33;;;20.10;93.40;;;;;;5053141;28;21136;-70
2021/07/25 04:18:43;;;;;;;25.47;23.90;;;20.00;93.60;;;;;;5048395;28;20463;-70
2021/07/25 04:21:10;;;;;;;25.33;23.63;;;20.00;93.90;;;;;;5058792;28;20450;-70
2021/07/25 04:23:40;;;;;;;26.83;24.50;;;20.00;93.80;;;;;;5053251;28;20844;-70
2021/07/25 04:26:07;;;;;;;27.43;25.43;;;19.90;93.90;;;;;;5035386;28;20877;-70
2021/07/25 04:28:36;;;;;;;26.00;24.10;;;20.00;93.70;;;;;;5053212;28;20812;-70
2021/07/25 04:31:03;;;;;;;26.43;24.73;;;19.90;93.70;;;;;;5049574;28;20455;-70
2021/07/25 04:33:32;;;;;;;26.03;24.23;;;19.90;93.90;;;;;;5046467;28;20538;-70
2021/07/25 04:35:59;;;;;;;28.03;25.70;;;19.90;93.90;;;;;;5050159;28;20558;-70
2021/07/25 04:38:27;;;;;;;27.00;24.83;;;19.80;94.40;;;;;;5052669;28;21237;-70
2021/07/25 04:40:58;;;;;;;27.07;25.20;;;19.90;94.10;;;;;;5049458;28;20465;-70
2021/07/25 04:43:30;;;;;;;29.70;27.40;;;20.00;93.90;;;;;;5050707;28;20892;-69
2021/07/25 04:46:05;;;;;;;26.03;24.27;;;20.00;93.90;;;;;;5042082;28;20471;-71
2021/07/25 04:48:45;;;;;;;25.37;23.60;;;20.00;94.00;;;;;;5044202;28;21169;-70
2021/07/25 04:51:12;;;;;;;24.40;22.87;;;20.10;94.00;;;;;;5045418;28;20458;-70
2021/07/25 04:53:40;;;;;;;25.37;23.40;;;20.10;93.70;;;;;;5041403;28;20818;-70
2021/07/25 04:56:10;;;;;;;23.83;22.43;;;20.20;93.00;;;;;;5044399;28;20476;-70
2021/07/25 04:58:41;;;;;;;24.97;23.03;;;20.20;92.70;;;;;;5050432;28;20886;-70
2021/07/25 05:01:13;;;;;;;24.93;23.43;;;20.20;92.60;;;;;;5046319;28;20454;-70
2021/07/25 05:03:41;;;;;;;24.93;23.23;;;20.30;92.80;;;;;;5049061;28;20467;-70
2021/07/25 05:06:11;;;;;;;24.13;22.53;;;20.30;92.70;;;;;;5041030;28;21263;-70
2021/07/25 05:08:38;;;;;;;24.10;22.60;;;20.40;92.50;;;;;;5044865;28;20462;-70
2021/07/25 05:11:16;;;;;;;23.90;22.40;;;20.40;92.50;;;;;;5044799;28;20452;-70
2021/07/25 05:13:46;;;;;;;25.00;23.40;;;20.40;92.70;;;;;;5045540;28;20459;-70
2021/07/25 05:16:26;;;;;;;24.17;22.50;;;20.40;92.50;;;;;;5048805;28;20976;-69
2021/07/25 05:19:02;;;;;;;25.03;23.20;;;20.60;92.20;;;;;;5037371;28;20485;-69
2021/07/25 05:21:35;;;;;;;24.90;23.20;;;20.60;92.00;;;;;;5041797;28;20452;-70
2021/07/25 05:24:06;;;;;;;25.13;23.23;;;20.60;92.00;;;;;;5041689;28;20492;-70
2021/07/25 05:26:36;;;;;;;24.73;23.13;;;20.60;92.20;;;;;;5049261;28;20489;-70
2021/07/25 05:29:04;;;;;;;24.13;22.60;;;20.70;92.20;;;;;;5049802;28;20982;-70
2021/07/25 05:31:33;;;;;;;24.53;22.90;;;20.70;91.90;;;;;;5041637;28;20450;-70
2021/07/25 05:34:04;;;;;;;24.53;22.87;;;20.70;91.70;;;;;;5041946;28;20872;-70
2021/07/25 05:36:31;;;;;;;24.40;22.90;;;20.70;91.70;;;;;;5044414;28;20497;-70
2021/07/25 05:38:58;;;;;;;24.77;23.27;;;20.80;91.40;;;;;;5044223;28;20458;-71
2021/07/25 05:41:25;;;;;;;24.53;23.00;;;20.70;91.20;;;;;;5047535;28;20792;-70
2021/07/25 05:43:52;;;;;;;25.53;23.90;;;20.70;91.50;;;;;;5043889;28;20493;-71
2021/07/25 05:46:19;;;;;;;25.10;23.60;;;20.70;91.50;;;;;;5033533;28;20559;-71
2021/07/25 05:48:47;;;;;;;24.97;23.07;;;20.80;91.20;;;;;;5049545;28;20473;-70
2021/07/25 05:51:14;;;;;;;24.73;23.23;;;20.90;90.90;;;;;;5040947;28;20534;-70
2021/07/25 05:53:41;;;;;;;26.37;24.67;;;20.80;90.90;;;;;;5049196;28;20487;-70
2021/07/25 05:56:09;;;;;;;25.93;24.20;;;20.90;90.70;;;;;;5034410;28;20989;-70
2021/07/25 05:58:36;;;;;;;25.17;23.37;;;21.00;90.70;;;;;;5042758;28;20545;-70
2021/07/25 06:01:03;;;;;;;24.63;23.20;;;20.90;91.00;;;;;;5047260;28;20466;-70
2021/07/25 06:03:30;;;;;;;24.97;23.47;;;20.90;91.00;;;;;;5040259;28;20463;-70
2021/07/25 06:05:58;;;;;;;24.70;23.10;;;21.00;90.60;;;;;;5046267;28;20475;-70
2021/07/25 06:08:25;;;;;;;24.07;22.33;;;21.00;90.30;;;;;;5046092;28;20459;-70
2021/07/25 06:10:52;;;;;;;23.93;22.57;;;21.10;90.20;;;;;;5045697;28;21133;-69
2021/07/25 06:13:19;;;;;;;25.23;23.23;;;21.20;90.00;;;;;;5046316;28;20486;-70
2021/07/25 06:15:48;;;;;;;26.40;24.90;;;21.30;89.60;;;;;;5045754;28;20512;-70
2021/07/25 06:18:15;;;;;;;25.60;24.00;;;21.40;89.20;;;;;;5045433;28;20459;-70
2021/07/25 06:20:42;;;;;;;25.83;24.10;;;21.50;88.70;;;;;;5045532;28;20478;-70
2021/07/25 06:23:14;;;;;;;27.37;25.77;;;21.60;88.60;;;;;;5048667;28;20455;-70
2021/07/25 06:25:41;;;;;;;26.77;25.17;;;21.70;88.30;;;;;;5041704;28;20491;-71
2021/07/25 06:28:09;;;;;;;25.80;24.20;;;21.80;88.40;;;;;;5041887;28;21370;-70
2021/07/25 06:30:36;;;;;;;25.90;24.40;;;21.90;88.00;;;;;;5037869;28;20452;-71
2021/07/25 06:33:04;;;;;;;26.50;24.90;;;22.00;87.20;;;;;;5045701;28;20910;-70
2021/07/25 06:35:33;;;;;;;27.63;25.93;;;22.20;86.60;;;;;;5044543;28;20844;-72
2021/07/25 06:38:03;;;;;;;29.40;27.70;;;22.30;85.90;;;;;;5049972;28;20499;-72
2021/07/25 06:40:32;;;;;;;28.37;26.47;;;22.40;85.50;;;;;;5046016;28;20458;-72
2021/07/25 06:43:00;;;;;;;27.13;25.53;;;22.40;84.60;;;;;;5044502;28;20463;-74
2021/07/25 06:45:29;;;;;;;29.10;27.37;;;22.50;84.40;;;;;;5037233;28;20497;-73
2021/07/25 06:47:56;;;;;;;27.97;26.07;;;22.60;84.20;;;;;;5044883;28;20466;-73
2021/07/25 06:50:24;;;;;;;28.97;27.07;;;22.70;83.20;;;;;;5044038;28;20468;-72
2021/07/25 06:52:52;;;;;;;28.53;26.90;;;22.50;83.40;;;;;;5042870;28;20481;-73
2021/07/25 06:55:21;;;;;;;29.63;27.80;;;22.70;83.80;;;;;;5041642;28;20581;-73
2021/07/25 06:57:51;;;;;;;29.40;27.50;;;23.00;83.10;;;;;;5046371;28;20463;-72
2021/07/25 07:00:18;;;;;;;30.20;28.10;;;23.50;81.80;;;;;;5046276;28;20469;-73
2021/07/25 07:02:47;;;;;;;32.40;30.27;;;24.00;80.20;;;;;;5038198;28;20452;-73
2021/07/25 07:05:14;;;;;;;31.77;29.67;;;24.40;78.30;;;;;;5046487;28;20505;-72
2021/07/25 07:07:41;;;;;;;32.57;30.47;;;24.60;77.60;;;;;;5041897;28;20477;-73
2021/07/25 07:10:09;;;;;;;34.77;32.57;;;24.80;76.60;;;;;;5048371;28;20529;-71
2021/07/25 07:12:36;;;;;;;34.37;32.33;;;25.00;75.50;;;;;;5036520;28;20473;-71
2021/07/25 07:15:07;;;;;;;34.77;32.57;;;25.30;75.70;;;;;;5052635;28;20804;-72
2021/07/25 07:17:34;;;;;;;35.00;32.80;;;25.40;74.70;;;;;;5054384;28;20456;-72
2021/07/25 07:20:01;;;;;;;34.20;32.00;;;25.30;73.60;;;;;;5046362;28;20461;-72
2021/07/25 07:22:28;;;;;;;38.37;35.57;;;25.30;74.30;;;;;;5050959;28;20566;-72
2021/07/25 07:24:55;;;;;;;34.87;32.47;;;25.50;74.30;;;;;;5050516;28;20560;-73
2021/07/25 07:27:23;;;;;;;33.23;31.23;;;25.40;73.50;;;;;;5048937;28;20498;-74
2021/07/25 07:29:49;;;;;;;31.03;29.23;;;25.30;74.00;;;;;;5050413;28;20465;-75
2021/07/25 07:32:18;;;;;;;32.83;30.83;;;25.30;73.30;;;;;;5048408;28;20485;-75
2021/07/25 07:34:45;;;;;;;31.80;29.80;;;25.20;72.80;;;;;;5050026;28;20533;-74
2021/07/25 07:37:12;;;;;;;31.77;29.90;;;25.30;72.10;;;;;;5049118;28;20553;-73
2021/07/25 07:39:40;;;;;;;32.17;30.27;;;25.30;71.40;;;;;;5045353;28;20455;-73
2021/07/25 07:42:08;;;;;;;32.17;30.27;;;25.30;71.20;;;;;;5047569;28;20986;-75
2021/07/25 07:44:37;;;;;;;33.10;31.00;;;25.30;71.60;;;;;;5048530;28;20557;-73
2021/07/25 07:47:05;;;;;;;32.67;30.67;;;25.10;72.40;;;;;;5051156;28;20916;-74
2021/07/25 07:49:33;;;;;;;32.77;30.87;;;25.20;72.10;;;;;;5049446;28;20485;-74
2021/07/25 07:52:00;;;;;;;33.27;31.27;;;25.00;72.70;;;;;;5051354;28;20956;-73
2021/07/25 07:54:28;;;;;;;32.20;30.20;;;24.80;73.90;;;;;;5041121;28;20538;-74
2021/07/25 07:56:55;;;;;;;34.00;31.90;;;24.70;74.20;;;;;;5050551;28;20556;-75
2021/07/25 07:59:22;;;;;;;33.00;30.90;;;24.60;74.80;;;;;;5047990;28;20459;-75
2021/07/25 08:01:49;;;;;;;32.70;30.67;;;24.30;74.70;;;;;;5046482;28;20451;-75
2021/07/25 08:04:16;;;;;;;32.10;30.00;;;24.00;75.60;;;;;;5049927;28;20458;-75
2021/07/25 08:06:46;;;;;;;31.33;29.43;;;24.10;75.60;;;;;;5045532;28;20485;-74
2021/07/25 08:09:13;;;;;;;31.03;28.93;;;24.30;75.20;;;;;;5042714;28;20466;-74
2021/07/25 08:11:43;;;;;;;31.80;29.90;;;24.30;75.00;;;;;;5050035;28;20482;-74
2021/07/25 08:14:11;;;;;;;34.10;32.10;;;24.40;75.00;;;;;;5048934;28;20471;-74
2021/07/25 08:16:39;;;;;;;32.40;30.50;;;24.60;74.50;;;;;;5050638;28;20478;-74
2021/07/25 08:19:06;;;;;;;33.90;31.90;;;24.70;74.30;;;;;;5045040;28;20469;-74
2021/07/25 08:21:32;;;;;;;34.13;31.73;;;25.00;74.00;;;;;;5046052;28;20458;-74
2021/07/25 08:24:01;;;;;;;35.40;33.00;;;25.20;74.00;;;;;;5044101;28;20458;-74
2021/07/25 08:26:28;;;;;;;33.30;31.30;;;25.40;73.00;;;;;;5044757;28;20482;-75
2021/07/25 08:28:55;;;;;;;33.80;31.90;;;25.50;72.80;;;;;;5044523;28;20456;-76
2021/07/25 08:31:22;;;;;;;33.40;31.40;;;25.50;72.50;;;;;;5038693;28;21341;-76
2021/07/25 08:33:49;;;;;;;32.40;30.57;;;25.60;72.20;;;;;;5046939;28;20493;-74
2021/07/25 08:36:16;;;;;;;31.93;29.83;;;25.60;71.90;;;;;;5047408;28;20553;-74
2021/07/25 08:38:45;;;;;;;33.90;31.90;;;25.60;71.40;;;;;;5040172;28;20456;-75
2021/07/25 08:41:15;;;;;;;32.83;30.80;;;25.60;71.50;;;;;;5050818;28;20542;-74
2021/07/25 08:43:43;;;;;;;32.60;30.80;;;25.60;71.30;;;;;;5047017;28;20960;-75
2021/07/25 08:46:16;;;;;;;32.07;30.17;;;25.60;71.20;;;;;;5042874;28;20475;-75
2021/07/25 08:48:47;;;;;;;32.30;30.20;;;25.60;71.20;;;;;;5047365;28;20524;-75
2021/07/25 08:51:19;;;;;;;32.10;30.10;;;25.60;71.20;;;;;;5051271;28;20450;-75
2021/07/25 08:54:00;;;;;;;31.60;29.80;;;25.50;70.60;;;;;;5040038;28;20493;-72
2021/07/25 08:56:31;;;;;;;31.53;29.73;;;25.30;70.90;;;;;;5043603;28;20489;-73
2021/07/25 08:59:00;;;;;;;34.53;32.43;;;25.20;71.20;;;;;;5043015;28;20448;-73
2021/07/25 09:01:35;;;;;;;32.03;30.03;;;25.20;72.00;;;;;;5042175;28;20462;-72
2021/07/25 09:04:03;;;;;;;31.20;29.37;;;25.40;71.70;;;;;;5044671;28;20463;-73
2021/07/25 09:06:42;;;;;;;32.47;30.57;;;25.40;71.60;;;;;;5045537;28;20475;-73
2021/07/25 09:09:09;;;;;;;31.40;29.40;;;25.30;72.10;;;;;;5047206;28;20458;-74
2021/07/25 09:11:41;;;;;;;33.17;31.07;;;25.20;72.50;;;;;;5041713;28;20466;-73
2021/07/25 09:14:08;;;;;;;30.17;28.47;;;25.00;72.50;;;;;;5044774;28;20841;-73
2021/07/25 09:16:36;;;;;;;31.53;29.60;;;24.90;73.30;;;;;;5045058;28;20527;-72
2021/07/25 09:19:04;;;;;;;33.07;31.03;;;24.90;73.70;;;;;;5043843;28;20463;-72
2021/07/25 09:21:39;;;;;;;35.27;32.87;;;24.90;74.40;;;;;;5047586;28;20463;-72
2021/07/25 09:24:24;;;;;;;35.50;33.07;;;24.90;74.50;;;;;;5045915;28;20464;-74
2021/07/25 09:27:04;;;;;;;32.97;30.97;;;25.10;74.10;;;;;;5045013;28;20514;-72
2021/07/25 09:29:34;;;;;;;35.10;32.63;;;25.30;73.30;;;;;;5046916;28;20833;-72
2021/07/25 09:32:12;;;;;;;33.63;31.47;;;25.40;73.30;;;;;;5058778;28;20545;-72
2021/07/25 09:34:40;;;;;;;35.67;33.47;;;25.70;72.50;;;;;;5034548;28;20494;-71
2021/07/25 09:37:11;;;;;;;35.80;33.50;;;25.80;71.20;;;;;;5047451;28;21083;-71
2021/07/25 09:39:41;;;;;;;33.90;31.50;;;25.90;71.10;;;;;;5047962;28;20455;-72
2021/07/25 09:42:10;;;;;;;35.37;32.90;;;26.00;70.70;;;;;;5041017;28;20498;-72
2021/07/25 09:44:48;;;;;;;35.77;33.37;;;25.90;70.80;;;;;;5047011;28;20443;-73
2021/07/25 09:47:29;;;;;;;33.23;31.00;;;25.70;71.70;;;;;;5047029;28;20484;-71
2021/07/25 09:49:57;;;;;;;31.00;29.20;;;25.60;73.20;;;;;;5048338;28;20526;-72
2021/07/25 09:52:28;;;;;;;32.43;30.43;;;25.50;73.90;;;;;;5042587;28;20456;-73
2021/07/25 09:54:56;;;;;;;32.73;30.70;;;25.40;74.70;;;;;;5039634;28;20479;-72
2021/07/25 09:57:25;;;;;;;32.23;30.33;;;25.40;75.00;;;;;;5038425;28;20599;-73
2021/07/25 09:59:53;;;;;;;30.90;28.90;;;25.30;75.60;;;;;;5045228;28;20464;-71
2021/07/25 10:02:34;;;;;;;31.77;29.90;;;25.20;76.00;;;;;;5041019;28;20452;-72
2021/07/25 10:05:12;;;;;;;33.40;31.20;;;25.20;76.40;;;;;;5046066;28;20462;-72
2021/07/25 10:07:39;;;;;;;30.93;29.13;;;25.20;76.80;;;;;;5043806;28;20518;-72
2021/07/25 10:10:09;;;;;;;31.60;29.70;;;25.20;77.00;;;;;;5041080;28;20999;-72
2021/07/25 10:12:39;;;;;;;29.90;28.10;;;25.00;77.70;;;;;;5042962;28;20535;-71
2021/07/25 10:15:08;;;;;;;29.30;27.60;;;25.00;77.90;;;;;;5049700;28;20477;-71
2021/07/25 10:17:37;;;;;;;30.83;28.90;;;24.90;78.00;;;;;;5048030;28;20452;-72
2021/07/25 10:20:06;;;;;;;31.27;29.33;;;24.80;78.10;;;;;;5044961;28;20543;-72
2021/07/25 10:22:38;;;;;;;31.20;29.20;;;24.60;78.20;;;;;;5041119;28;20460;-72
2021/07/25 10:25:07;;;;;;;39.00;36.27;;;24.50;78.30;;;;;;5041602;28;20543;-72
2021/07/25 10:27:36;;;;;;;31.63;29.70;;;24.40;79.20;;;;;;5037482;28;20494;-71
2021/07/25 10:30:06;;;;;;;28.70;27.00;;;24.30;79.50;;;;;;5042342;28;20470;-72
2021/07/25 10:32:35;;;;;;;30.77;28.63;;;24.20;79.50;;;;;;5047105;28;20815;-72
2021/07/25 10:35:05;;;;;;;29.30;27.50;;;24.10;79.30;;;;;;5052984;28;20610;-72
2021/07/25 10:37:33;;;;;;;30.53;28.63;;;24.10;79.00;;;;;;5053980;28;20533;-72
2021/07/25 10:40:02;;;;;;;33.73;31.43;;;24.00;79.30;;;;;;5048659;28;21007;-72
2021/07/25 10:42:30;;;;;;;28.43;26.63;;;24.10;79.70;;;;;;5046739;28;20554;-72
2021/07/25 10:44:57;;;;;;;29.63;27.93;;;24.10;79.80;;;;;;5055630;28;20459;-74
2021/07/25 10:47:27;;;;;;;29.27;27.00;;;24.10;79.80;;;;;;5053930;28;20474;-73
2021/07/25 10:49:58;;;;;;;27.43;25.83;;;24.10;80.50;;;;;;5050909;28;20956;-73
2021/07/25 10:52:26;;;;;;;28.47;26.77;;;24.10;80.40;;;;;;5052369;28;20462;-73
2021/07/25 10:54:53;;;;;;;26.90;25.20;;;24.00;80.00;;;;;;5054658;28;20471;-74
2021/07/25 10:57:20;;;;;;;28.43;26.43;;;23.90;80.60;;;;;;5045223;28;21077;-71
2021/07/25 10:59:50;;;;;;;26.70;25.20;;;23.90;79.80;;;;;;5046587;28;21018;-73
2021/07/25 11:02:50;;;;;;;30.03;28.20;;;23.80;79.70;;;;;;5048046;28;20450;-74
2021/07/25 11:05:19;;;;;;;28.63;26.90;;;23.90;79.30;;;;;;5047759;28;20453;-73
2021/07/25 11:07:58;;;;;;;29.00;27.20;;;23.90;79.20;;;;;;5044045;28;20454;-74
2021/07/25 11:10:35;;;;;;;27.57;26.07;;;24.00;79.00;;;;;;5045320;28;20456;-74
2021/07/25 11:13:13;;;;;;;29.70;27.80;;;24.00;78.90;;;;;;5046088;28;20451;-74
2021/07/25 11:15:47;;;;;;;30.87;28.87;;;24.00;79.00;;;;;;5049362;28;20474;-74
2021/07/25 11:18:29;;;;;;;30.77;28.77;;;24.00;79.70;;;;;;5049931;28;20477;-74
2021/07/25 11:20:59;;;;;;;34.43;31.97;;;24.10;79.70;;;;;;5048883;28;20466;-75
2021/07/25 11:23:35;;;;;;;28.87;26.97;;;24.20;79.80;;;;;;5056780;28;20967;-75
2021/07/25 11:26:32;;;;;;;27.87;25.97;;;24.20;80.20;;;;;;5038462;28;20482;-75
2021/07/25 11:29:00;;;;;;;29.80;28.00;;;24.20;80.30;;;;;;5047273;28;20889;-73
2021/07/25 11:31:41;;;;;;;27.60;25.80;;;24.30;80.10;;;;;;5053459;28;20439;-73
2021/07/25 11:34:11;;;;;;;27.80;26.20;;;24.50;79.50;;;;;;5050679;28;20470;-75
2021/07/25 11:36:39;;;;;;;29.20;27.30;;;24.50;79.30;;;;;;5050172;28;20564;-73
2021/07/25 11:39:08;;;;;;;34.43;32.33;;;24.60;79.30;;;;;;5053740;28;20458;-75
2021/07/25 11:41:38;;;;;;;28.57;26.87;;;24.60;79.00;;;;;;5052730;28;20805;-73
2021/07/25 11:44:06;;;;;;;28.10;26.40;;;24.70;78.60;;;;;;5052185;28;20972;-74
2021/07/25 11:46:36;;;;;;;29.37;27.47;;;24.90;78.10;;;;;;5044777;28;20466;-72
2021/07/25 11:49:14;;;;;;;29.87;28.00;;;24.90;77.40;;;;;;5039692;28;20550;-72
2021/07/25 11:51:48;;;;;;;29.37;27.33;;;25.00;77.00;;;;;;5048493;28;20446;-73
2021/07/25 11:54:19;;;;;;;29.93;28.13;;;25.00;76.50;;;;;;5045323;28;20472;-71
2021/07/25 11:56:57;;;;;;;28.23;26.43;;;25.00;76.90;;;;;;5045550;28;20479;-71
2021/07/25 11:59:24;;;;;;;34.37;32.47;;;25.10;76.40;;;;;;5047424;28;20785;-71
2021/07/25 12:01:51;;;;;;;29.87;28.07;;;25.10;76.90;;;;;;5045540;28;20955;-71
2021/07/25 12:04:20;;;;;;;32.03;29.93;;;25.00;76.80;;;;;;5042966;28;20540;-73
2021/07/25 12:06:58;;;;;;;32.00;29.80;;;24.90;77.10;;;;;;5048937;28;20484;-75
2021/07/25 12:09:27;;;;;;;32.10;30.20;;;24.90;76.90;;;;;;5042885;28;21261;-72
2021/07/25 12:12:07;;;;;;;30.70;28.80;;;24.90;77.20;;;;;;5047404;28;20981;-72
2021/07/25 12:14:35;;;;;;;31.40;29.50;;;25.00;76.60;;;;;;5047189;28;20567;-72
2021/07/25 12:17:03;;;;;;;32.40;30.40;;;24.90;76.80;;;;;;5050265;28;20481;-73
2021/07/25 12:19:35;;;;;;;30.73;28.80;;;24.90;77.50;;;;;;5048184;28;20494;-74
2021/07/25 12:22:21;;;;;;;33.70;31.57;;;24.70;77.60;;;;;;5044983;28;20483;-74
2021/07/25 12:24:51;;;;;;;32.00;29.90;;;24.60;77.80;;;;;;5045404;28;20464;-74
2021/07/25 12:27:33;;;;;;;32.47;30.10;;;24.40;78.00;;;;;;5045674;28;20565;-74
2021/07/25 12:30:14;;;;;;;30.70;28.27;;;24.40;77.90;;;;;;5050528;28;20462;-74
2021/07/25 12:32:42;;;;;;;29.80;27.90;;;24.40;78.10;;;;;;5039557;28;20504;-72
2021/07/25 12:35:32;;;;;;;28.37;26.50;;;24.40;77.60;;;;;;5046761;28;20470;-70
2021/07/25 12:38:01;;;;;;;28.20;26.20;;;24.40;77.30;;;;;;5046166;28;20470;-72
2021/07/25 12:40:30;;;;;;;30.73;28.83;;;24.80;76.50;;;;;;5043262;28;20952;-70